createdAt,value
2023-03-05T00:04:29.571Z,35.90
2023-03-05T00:09:51.255Z,38.03
2023-03-05T00:15:13.156Z,35.93
2023-03-05T00:20:35.201Z,36.87
2023-03-05T00:25:57.136Z,36.00
2023-03-05T00:31:24.176Z,40.27
2023-03-05T00:36:49.069Z,33.23
2023-03-05T00:42:10.805Z,33.53
2023-03-05T00:47:32.723Z,31.73
2023-03-05T00:52:54.977Z,31.70
2023-03-05T00:58:16.751Z,29.13
2023-03-05T01:03:38.496Z,30.97
2023-03-05T01:09:00.253Z,35.07
2023-03-05T01:14:22.043Z,34.63
2023-03-05T01:19:43.985Z,37.73
2023-03-05T01:25:06.081Z,45.27
2023-03-05T01:30:27.816Z,45.63
2023-03-05T01:35:50.388Z,36.23
2023-03-05T01:41:14.343Z,35.67
2023-03-05T01:46:38.381Z,31.37
2023-03-05T01:52:07.352Z,29.30
2023-03-05T01:57:34.934Z,33.77
2023-03-05T02:02:58.617Z,39.03
2023-03-05T02:08:22.416Z,32.03
2023-03-05T02:13:44.275Z,33.37
2023-03-05T02:19:09.643Z,33.37
2023-03-05T02:24:37.030Z,36.37
2023-03-05T02:29:58.741Z,32.47
2023-03-05T02:35:20.965Z,28.90
2023-03-05T02:40:42.909Z,32.93
2023-03-05T02:46:05.864Z,29.57
2023-03-05T02:51:28.150Z,26.87
2023-03-05T02:56:50.378Z,42.50
2023-03-05T03:02:13.014Z,39.67
2023-03-05T03:07:36.538Z,32.47
2023-03-05T03:12:58.553Z,38.43
2023-03-05T03:18:20.277Z,42.23
2023-03-05T03:23:42.091Z,35.90
2023-03-05T03:29:03.891Z,32.63
2023-03-05T03:34:26.556Z,38.60
2023-03-05T03:39:48.405Z,32.47
2023-03-05T03:45:10.617Z,23.73
2023-03-05T03:50:32.477Z,23.23
2023-03-05T03:55:58.818Z,26.07
2023-03-05T04:01:21.455Z,26.17
2023-03-05T04:06:43.839Z,28.83
2023-03-05T04:12:05.931Z,28.63
2023-03-05T04:17:27.729Z,24.63
2023-03-05T04:22:49.481Z,30.03
2023-03-05T04:28:11.665Z,24.63
2023-03-05T04:33:33.968Z,28.30
2023-03-05T04:38:55.714Z,24.27
2023-03-05T04:44:17.928Z,23.33
2023-03-05T04:49:39.732Z,25.53
2023-03-05T04:55:01.651Z,29.10
2023-03-05T05:00:23.797Z,23.13
2023-03-05T05:05:45.621Z,28.07
2023-03-05T05:11:08.271Z,25.47
2023-03-05T05:16:30.232Z,23.90
2023-03-05T05:21:52.003Z,24.27
2023-03-05T05:27:13.810Z,24.27
2023-03-05T05:32:35.678Z,26.60
2023-03-05T05:37:57.442Z,27.63
2023-03-05T05:43:19.210Z,26.90
2023-03-05T05:48:41.348Z,26.80
2023-03-05T05:54:03.114Z,28.63
2023-03-05T05:59:25.076Z,28.03
2023-03-05T06:04:46.865Z,25.20
2023-03-05T06:10:10.019Z,24.50
2023-03-05T06:15:31.951Z,27.47
2023-03-05T06:20:58.316Z,26.47
2023-03-05T06:26:22.174Z,27.93
2023-03-05T06:31:43.917Z,25.17
2023-03-05T06:37:05.947Z,27.53
2023-03-05T06:42:27.736Z,25.83
2023-03-05T06:47:49.553Z,28.13
2023-03-05T06:53:11.267Z,32.70
2023-03-05T06:58:33.000Z,33.50
2023-03-05T07:03:58.822Z,27.00
2023-03-05T07:09:20.677Z,32.97
2023-03-05T07:14:42.412Z,31.20
2023-03-05T07:20:04.790Z,29.10
2023-03-05T07:25:26.517Z,27.73
2023-03-05T07:30:59.678Z,28.90
2023-03-05T07:36:21.527Z,31.50
2023-03-05T07:41:43.279Z,25.93
2023-03-05T07:47:05.588Z,30.90
2023-03-05T07:52:27.379Z,29.13
2023-03-05T07:57:49.120Z,31.53
2023-03-05T08:03:10.835Z,32.50
2023-03-05T08:08:33.038Z,31.17
2023-03-05T08:13:54.814Z,24.83
2023-03-05T08:19:16.569Z,29.13
2023-03-05T08:24:38.344Z,27.53
2023-03-05T08:30:02.702Z,26.67
2023-03-05T08:35:24.616Z,31.03
2023-03-05T08:40:46.395Z,26.50
2023-03-05T08:46:08.437Z,29.17
2023-03-05T08:51:30.354Z,26.67
2023-03-05T08:56:52.074Z,29.67
2023-03-05T09:02:14.107Z,27.67
2023-03-05T09:07:37.779Z,31.97
2023-03-05T09:12:59.592Z,27.90
2023-03-05T09:18:21.500Z,24.67
2023-03-05T09:23:44.348Z,28.33
2023-03-05T09:29:07.534Z,28.17
2023-03-05T09:34:29.334Z,30.03
2023-03-05T09:39:51.125Z,30.53
2023-03-05T09:45:17.894Z,30.43
2023-03-05T09:50:44.560Z,28.30
2023-03-05T09:56:28.187Z,24.70
2023-03-05T10:01:52.843Z,26.03
2023-03-05T10:07:38.476Z,26.70
2023-03-05T10:13:05.484Z,32.97
2023-03-05T10:18:38.339Z,28.80
2023-03-05T10:24:25.429Z,29.30
2023-03-05T10:30:08.047Z,26.53
2023-03-05T10:35:44.255Z,28.93
2023-03-05T10:41:36.964Z,26.30
2023-03-05T10:47:00.748Z,29.53
2023-03-05T10:52:34.975Z,29.70
2023-03-05T10:57:56.759Z,29.63
2023-03-05T11:03:18.598Z,30.67
2023-03-05T11:08:40.920Z,27.47
2023-03-05T11:14:03.964Z,28.23
2023-03-05T11:19:33.426Z,30.20
2023-03-05T11:25:18.334Z,30.17
2023-03-05T11:30:40.629Z,37.17
2023-03-05T11:36:43.100Z,31.53
2023-03-05T11:42:11.652Z,27.43
2023-03-05T11:47:44.384Z,26.80
2023-03-05T11:53:12.067Z,27.57
2023-03-05T11:59:04.502Z,29.80
2023-03-05T12:04:26.825Z,26.40
2023-03-05T12:09:53.164Z,27.07
2023-03-05T12:15:17.653Z,31.90
2023-03-05T12:20:51.392Z,32.77
2023-03-05T12:26:13.250Z,29.53
2023-03-05T12:31:38.290Z,24.80
2023-03-05T12:37:00.045Z,25.13
2023-03-05T12:42:27.849Z,27.57
2023-03-05T12:47:55.307Z,23.92
2023-03-05T12:53:20.487Z,22.77
2023-03-05T12:58:51.035Z,25.27
2023-03-05T13:04:34.138Z,29.60
2023-03-05T13:10:02.086Z,27.97
2023-03-05T13:15:25.756Z,28.93
2023-03-05T13:20:52.123Z,24.40
2023-03-05T13:26:19.129Z,25.80
2023-03-05T13:31:54.391Z,25.53
2023-03-05T13:37:22.450Z,25.87
2023-03-05T13:42:44.565Z,27.43
2023-03-05T13:48:10.385Z,22.60
2023-03-05T13:53:33.995Z,26.20
2023-03-05T13:58:56.995Z,24.00
2023-03-05T14:04:23.468Z,23.00
2023-03-05T14:09:48.511Z,23.47
2023-03-05T14:15:31.771Z,20.63
2023-03-05T14:21:10.443Z,23.73
2023-03-05T14:26:38.362Z,22.93
2023-03-05T14:32:06.957Z,38.17
2023-03-05T14:37:42.787Z,25.73
2023-03-05T14:43:10.702Z,22.70
2023-03-05T14:48:32.439Z,25.70
2023-03-05T14:53:55.049Z,25.90
2023-03-05T14:59:18.301Z,27.87
2023-03-05T15:04:40.646Z,26.07
2023-03-05T15:10:02.484Z,27.13
2023-03-05T15:15:24.403Z,25.80
2023-03-05T15:20:48.816Z,25.77
2023-03-05T15:26:14.103Z,29.33
2023-03-05T15:31:38.690Z,31.10
2023-03-05T15:37:02.293Z,26.17
2023-03-05T15:42:24.042Z,31.40
2023-03-05T15:47:48.986Z,28.60
2023-03-05T15:53:13.363Z,25.53
2023-03-05T15:58:35.074Z,28.83
2023-03-05T16:03:56.856Z,26.33
2023-03-05T16:09:20.136Z,27.93
2023-03-05T16:14:42.362Z,29.20
2023-03-05T16:20:04.961Z,27.30
2023-03-05T16:25:26.900Z,28.10
2023-03-05T16:30:56.663Z,24.93
2023-03-05T16:36:24.690Z,24.03
2023-03-05T16:41:46.636Z,22.53
2023-03-05T16:47:11.955Z,23.50
2023-03-05T16:52:33.775Z,21.97
2023-03-05T16:57:55.559Z,21.40
2023-03-05T17:03:17.367Z,20.00
2023-03-05T17:08:39.897Z,17.43
2023-03-05T17:14:03.892Z,19.70
2023-03-05T17:19:25.813Z,21.27
2023-03-05T17:24:48.037Z,17.67
2023-03-05T17:30:10.577Z,19.60
2023-03-05T17:35:32.597Z,17.63
2023-03-05T17:40:54.428Z,20.80
2023-03-05T17:46:16.808Z,18.93
2023-03-05T17:51:38.617Z,21.80
2023-03-05T17:57:00.836Z,25.13
2023-03-05T18:02:22.593Z,22.77
2023-03-05T18:07:44.516Z,23.00
2023-03-05T18:13:06.385Z,21.97
2023-03-05T18:18:29.233Z,28.47
2023-03-05T18:23:51.480Z,23.27
2023-03-05T18:29:13.370Z,28.10
2023-03-05T18:34:35.189Z,30.23
2023-03-05T18:39:57.979Z,26.40
2023-03-05T18:45:22.077Z,27.27
2023-03-05T18:50:44.048Z,27.10
2023-03-05T18:56:06.300Z,27.90
2023-03-05T19:01:28.308Z,28.90
2023-03-05T19:06:50.191Z,27.20
2023-03-05T19:12:11.948Z,32.90
2023-03-05T19:17:33.779Z,27.97
2023-03-05T19:22:55.759Z,37.27
2023-03-05T19:28:17.532Z,33.37
2023-03-05T19:33:39.284Z,34.20
2023-03-05T19:39:04.010Z,34.30
2023-03-05T19:44:26.508Z,34.20
2023-03-05T19:49:48.271Z,33.93
2023-03-05T19:55:10.464Z,33.60
2023-03-05T20:00:32.312Z,31.57
2023-03-05T20:05:54.067Z,33.47
2023-03-05T20:11:16.999Z,34.47
2023-03-05T20:16:39.569Z,32.67
2023-03-05T20:22:01.506Z,31.70
2023-03-05T20:27:24.339Z,29.10
2023-03-05T20:32:46.598Z,29.07
2023-03-05T20:38:20.677Z,26.77
2023-03-05T20:43:45.727Z,24.03
2023-03-05T20:49:08.743Z,24.47
2023-03-05T20:54:30.732Z,24.93
2023-03-05T20:59:52.595Z,30.77
2023-03-05T21:05:14.659Z,21.63
2023-03-05T21:10:37.671Z,24.83
2023-03-05T21:15:59.815Z,23.93
2023-03-05T21:21:21.771Z,31.07
2023-03-05T21:26:43.562Z,27.07
2023-03-05T21:32:05.486Z,22.80
2023-03-05T21:37:27.380Z,25.70
2023-03-05T21:42:49.505Z,26.67
2023-03-05T21:48:11.358Z,24.43
2023-03-05T21:53:33.202Z,25.87
2023-03-05T21:58:54.968Z,19.97
2023-03-05T22:04:16.760Z,24.87
2023-03-05T22:09:39.584Z,23.10
2023-03-05T22:15:01.460Z,21.13
2023-03-05T22:20:23.264Z,21.63
2023-03-05T22:25:45.191Z,20.23
2023-03-05T22:31:07.100Z,22.20
2023-03-05T22:36:29.299Z,23.30
2023-03-05T22:41:51.102Z,22.23
2023-03-05T22:47:12.837Z,21.87
2023-03-05T22:52:34.787Z,20.40
2023-03-05T22:57:56.545Z,19.90
2023-03-05T23:03:18.419Z,23.73
2023-03-05T23:08:40.201Z,19.77
2023-03-05T23:14:01.938Z,21.43
2023-03-05T23:19:23.673Z,21.90
2023-03-05T23:24:45.578Z,22.73
2023-03-05T23:30:19.886Z,22.40
2023-03-05T23:35:49.245Z,21.73
2023-03-05T23:41:11.189Z,19.10
2023-03-05T23:46:33.033Z,21.20
2023-03-05T23:51:54.753Z,19.50
2023-03-05T23:57:16.738Z,21.90
